createdAt,value
2023-03-15T00:00:26.580Z,98048.06
2023-03-15T00:01:59.892Z,98043.78
2023-03-15T00:03:37.677Z,98037.13
2023-03-15T00:05:13.598Z,98039.19
2023-03-15T00:06:46.772Z,98038.56
2023-03-15T00:08:19.304Z,98040.66
2023-03-15T00:09:52.919Z,98037.44
2023-03-15T00:11:25.523Z,98040.19
2023-03-15T00:12:58.580Z,98034.88
2023-03-15T00:14:31.881Z,98039.19
2023-03-15T00:16:05.729Z,98038.22
2023-03-15T00:17:39.117Z,98040.84
2023-03-15T00:19:13.141Z,98045.19
2023-03-15T00:20:47.212Z,98044.19
2023-03-15T00:22:23.484Z,98042.19
2023-03-15T00:23:57.139Z,98041.84
2023-03-15T00:25:30.432Z,98047.81
2023-03-15T00:27:03.577Z,98041.72
2023-03-15T00:28:37.120Z,98037.34
2023-03-15T00:30:11.506Z,98041.22
2023-03-15T00:31:44.668Z,98038.72
2023-03-15T00:33:18.270Z,98040.00
2023-03-15T00:34:54.884Z,98026.41
2023-03-15T00:36:28.211Z,98024.81
2023-03-15T00:38:01.883Z,98024.88
2023-03-15T00:39:38.039Z,98023.06
2023-03-15T00:41:16.861Z,98021.28
2023-03-15T00:42:51.219Z,98020.41
2023-03-15T00:44:24.951Z,98016.13
2023-03-15T00:45:58.348Z,98019.47
2023-03-15T00:47:31.782Z,98015.84
2023-03-15T00:49:06.033Z,98007.00
2023-03-15T00:50:40.547Z,98008.81
2023-03-15T00:52:14.071Z,98003.78
2023-03-15T00:53:48.581Z,97998.75
2023-03-15T00:55:22.709Z,97998.91
2023-03-15T00:56:55.929Z,97997.31
2023-03-15T00:58:29.404Z,97995.44
2023-03-15T01:00:08.900Z,97994.50
2023-03-15T01:01:44.716Z,97981.53
2023-03-15T01:03:18.002Z,97986.94
2023-03-15T01:04:52.521Z,97976.50
2023-03-15T01:06:28.561Z,97980.63
2023-03-15T01:08:03.273Z,97979.84
2023-03-15T01:09:36.158Z,97973.00
2023-03-15T01:11:12.223Z,97971.16
2023-03-15T01:12:46.117Z,97973.56
2023-03-15T01:14:20.058Z,97970.91
2023-03-15T01:15:53.393Z,97959.66
2023-03-15T01:17:27.054Z,97967.47
2023-03-15T01:19:00.565Z,97965.81
2023-03-15T01:20:34.105Z,97974.50
2023-03-15T01:22:08.671Z,97966.63
2023-03-15T01:23:42.520Z,97973.50
2023-03-15T01:25:15.751Z,97965.75
2023-03-15T01:26:49.497Z,97969.28
2023-03-15T01:28:22.831Z,97966.72
2023-03-15T01:29:56.243Z,97967.53
2023-03-15T01:31:49.305Z,97958.09
2023-03-15T01:33:29.517Z,97960.63
2023-03-15T01:35:02.776Z,97954.34
2023-03-15T01:36:35.903Z,97957.63
2023-03-15T01:38:10.856Z,97953.94
2023-03-15T01:39:43.698Z,97957.09
2023-03-15T01:41:18.061Z,97956.06
2023-03-15T01:42:52.446Z,97962.91
2023-03-15T01:44:25.955Z,97957.59
2023-03-15T01:46:13.185Z,97959.19
2023-03-15T01:47:49.110Z,97957.41
2023-03-15T01:49:26.918Z,97959.00
2023-03-15T01:51:03.411Z,97953.69
2023-03-15T01:52:40.317Z,97960.47
2023-03-15T01:54:19.755Z,97963.00
2023-03-15T01:55:55.910Z,97967.56
2023-03-15T01:57:44.631Z,97962.72
2023-03-15T01:59:22.648Z,97955.09
2023-03-15T02:00:55.039Z,97961.97
2023-03-15T02:02:30.434Z,97960.16
2023-03-15T02:04:10.764Z,97959.19
2023-03-15T02:05:54.780Z,97961.72
2023-03-15T02:07:51.190Z,97964.34
2023-03-15T02:09:36.128Z,97947.34
2023-03-15T02:11:09.457Z,97959.09
2023-03-15T02:12:46.217Z,97965.25
2023-03-15T02:14:19.970Z,97957.50
2023-03-15T02:15:53.613Z,97965.34
2023-03-15T02:17:45.300Z,97968.03
2023-03-15T02:19:34.085Z,97960.00
2023-03-15T02:21:15.922Z,97959.81
2023-03-15T02:22:54.899Z,97966.66
2023-03-15T02:24:38.602Z,97964.78
2023-03-15T02:26:19.784Z,97965.53
2023-03-15T02:27:55.320Z,97963.84
2023-03-15T02:29:30.394Z,97963.75
2023-03-15T02:31:03.668Z,97968.09
2023-03-15T02:32:36.992Z,97967.38
2023-03-15T02:34:09.448Z,97958.91
2023-03-15T02:35:42.669Z,97961.66
2023-03-15T02:37:16.011Z,97974.19
2023-03-15T02:38:50.836Z,97969.22
2023-03-15T02:40:27.920Z,97969.22
2023-03-15T02:42:01.961Z,97971.38
2023-03-15T02:43:37.934Z,97967.28
2023-03-15T02:45:12.156Z,97970.81
2023-03-15T02:46:49.168Z,97974.13
2023-03-15T02:48:26.602Z,97960.34
2023-03-15T02:50:00.002Z,97972.44
2023-03-15T02:51:35.284Z,97966.28
2023-03-15T02:53:08.590Z,97961.09
2023-03-15T02:54:43.529Z,97968.81
2023-03-15T02:56:18.113Z,97964.06
2023-03-15T02:57:51.356Z,97960.78
2023-03-15T02:59:25.972Z,97964.41
2023-03-15T03:00:59.147Z,97958.38
2023-03-15T03:02:31.540Z,97961.78
2023-03-15T03:04:04.962Z,97964.41
2023-03-15T03:05:38.307Z,97958.25
2023-03-15T03:07:10.824Z,97971.09
2023-03-15T03:08:52.079Z,97969.31
2023-03-15T03:10:26.844Z,97973.56
2023-03-15T03:12:03.364Z,97975.59
2023-03-15T03:13:38.873Z,97970.47
2023-03-15T03:15:14.297Z,97974.97
2023-03-15T03:16:51.180Z,97970.56
2023-03-15T03:18:24.997Z,97965.38
2023-03-15T03:19:58.284Z,97974.66
2023-03-15T03:21:38.919Z,97969.06
2023-03-15T03:23:12.387Z,97974.03
2023-03-15T03:24:46.201Z,97968.59
2023-03-15T03:26:22.073Z,97981.41
2023-03-15T03:27:57.519Z,97969.13
2023-03-15T03:29:32.062Z,97976.88
2023-03-15T03:31:18.170Z,97968.25
2023-03-15T03:32:52.199Z,97965.69
2023-03-15T03:34:27.156Z,97966.44
2023-03-15T03:36:04.140Z,97962.81
2023-03-15T03:37:38.433Z,97948.03
2023-03-15T03:39:21.009Z,97966.03
2023-03-15T03:40:54.210Z,97959.94
2023-03-15T03:42:26.582Z,97963.41
2023-03-15T03:44:00.030Z,97950.25
2023-03-15T03:45:33.206Z,97964.16
2023-03-15T03:47:08.168Z,97958.91
2023-03-15T03:48:41.564Z,97964.16
2023-03-15T03:50:14.891Z,97963.31
2023-03-15T03:51:47.995Z,97960.19
2023-03-15T03:53:21.341Z,97960.59
2023-03-15T03:54:54.131Z,97960.19
2023-03-15T03:56:27.464Z,97960.69
2023-03-15T03:58:01.141Z,97968.19
2023-03-15T04:00:07.940Z,97953.84
2023-03-15T04:01:48.322Z,97952.19
2023-03-15T04:03:27.519Z,97961.75
2023-03-15T04:05:09.678Z,97959.28
2023-03-15T04:06:45.986Z,97949.69
2023-03-15T04:08:22.644Z,97949.81
2023-03-15T04:09:56.575Z,97956.66
2023-03-15T04:11:28.967Z,97958.34
2023-03-15T04:13:06.234Z,97966.97
2023-03-15T04:14:39.545Z,97966.91
2023-03-15T04:16:15.668Z,97964.22
2023-03-15T04:18:05.922Z,97958.09
2023-03-15T04:19:47.176Z,97963.34
2023-03-15T04:21:23.576Z,97968.53
2023-03-15T04:23:01.371Z,97959.81
2023-03-15T04:24:53.487Z,97959.81
2023-03-15T04:26:46.907Z,97942.78
2023-03-15T04:28:31.011Z,97949.25
2023-03-15T04:30:14.437Z,97954.31
2023-03-15T04:32:07.001Z,97954.22
2023-03-15T04:33:55.422Z,97950.53
2023-03-15T04:35:58.052Z,97948.56
2023-03-15T04:37:49.898Z,97946.66
2023-03-15T04:39:43.014Z,97953.59
2023-03-15T04:41:36.053Z,97954.34
2023-03-15T04:43:29.142Z,97955.31
2023-03-15T04:45:34.987Z,97955.41
2023-03-15T04:47:39.325Z,97956.38
2023-03-15T04:49:35.321Z,97961.69
2023-03-15T04:51:34.398Z,97956.59
2023-03-15T04:53:38.892Z,97961.00
2023-03-15T04:55:31.234Z,97960.91
2023-03-15T04:57:42.886Z,97960.91
2023-03-15T04:59:36.561Z,97971.22
2023-03-15T05:01:30.070Z,97959.00
2023-03-15T05:03:26.394Z,97958.09
2023-03-15T05:05:24.056Z,97955.41
2023-03-15T05:07:17.330Z,97954.41
2023-03-15T05:09:19.676Z,97961.28
2023-03-15T05:11:03.244Z,97960.25
2023-03-15T05:12:59.034Z,97966.00
2023-03-15T05:14:43.280Z,97956.28
2023-03-15T05:16:35.332Z,97956.88
2023-03-15T05:18:36.669Z,97954.75
2023-03-15T05:20:19.074Z,97949.19
2023-03-15T05:22:11.376Z,97954.25
2023-03-15T05:24:12.563Z,97951.41
2023-03-15T05:26:04.382Z,97950.53
2023-03-15T05:27:57.278Z,97942.50
2023-03-15T05:29:41.120Z,97933.69
2023-03-15T05:31:29.421Z,97937.00
2023-03-15T05:33:17.535Z,97929.00
2023-03-15T05:35:16.902Z,97935.06
2023-03-15T05:37:12.378Z,97928.03
2023-03-15T05:39:23.238Z,97922.81
2023-03-15T05:41:18.320Z,97917.56
2023-03-15T05:42:50.557Z,97917.66
2023-03-15T05:44:53.265Z,97912.53
2023-03-15T05:46:51.864Z,97915.09
2023-03-15T05:49:00.394Z,97909.13
2023-03-15T05:50:42.987Z,97913.44
2023-03-15T05:52:37.697Z,97914.13
2023-03-15T05:54:32.555Z,97913.06
2023-03-15T05:56:24.667Z,97913.72
2023-03-15T05:58:16.096Z,97918.75
2023-03-15T06:00:10.302Z,97918.53
2023-03-15T06:01:49.643Z,97915.53
2023-03-15T06:03:32.073Z,97920.38
2023-03-15T06:05:15.093Z,97920.84
2023-03-15T06:06:48.306Z,97916.81
2023-03-15T06:08:21.765Z,97922.53
2023-03-15T06:09:58.016Z,97918.66
2023-03-15T06:11:32.063Z,97917.44
2023-03-15T06:13:07.107Z,97913.66
2023-03-15T06:14:40.958Z,97913.34
2023-03-15T06:16:15.038Z,97912.72
2023-03-15T06:17:51.760Z,97907.97
2023-03-15T06:19:26.342Z,97924.22
2023-03-15T06:21:01.616Z,97927.28
2023-03-15T06:22:35.003Z,97927.28
2023-03-15T06:24:15.384Z,97926.13
2023-03-15T06:25:50.098Z,97930.91
2023-03-15T06:27:24.618Z,97921.47
2023-03-15T06:29:01.015Z,97934.53
2023-03-15T06:30:34.232Z,97940.06
2023-03-15T06:32:08.243Z,97935.09
2023-03-15T06:33:44.196Z,97933.78
2023-03-15T06:35:18.071Z,97933.53
2023-03-15T06:36:52.642Z,97924.47
2023-03-15T06:38:26.028Z,97934.31
2023-03-15T06:39:59.688Z,97925.25
2023-03-15T06:41:35.387Z,97925.91
2023-03-15T06:43:19.515Z,97927.72
2023-03-15T06:44:53.008Z,97921.00
2023-03-15T06:46:27.421Z,97915.53
2023-03-15T06:48:01.716Z,97908.16
2023-03-15T06:49:35.512Z,97920.09
2023-03-15T06:51:09.397Z,97924.91
2023-03-15T06:52:43.064Z,97920.78
2023-03-15T06:54:16.501Z,97913.38
2023-03-15T06:55:52.313Z,97899.88
2023-03-15T06:57:26.933Z,97905.00
2023-03-15T06:58:59.273Z,97899.72
2023-03-15T07:00:32.476Z,97892.31
2023-03-15T07:02:05.798Z,97878.72
2023-03-15T07:03:39.038Z,97881.03
2023-03-15T07:05:12.688Z,97879.34
2023-03-15T07:06:45.834Z,97870.09
2023-03-15T07:08:19.040Z,97865.44
2023-03-15T07:09:54.249Z,97861.09
2023-03-15T07:11:28.702Z,97854.03
2023-03-15T07:13:04.421Z,97862.19
2023-03-15T07:14:37.736Z,97861.94
2023-03-15T07:16:10.989Z,97861.22
2023-03-15T07:17:44.619Z,97870.38
2023-03-15T07:19:17.796Z,97869.91
2023-03-15T07:20:57.249Z,97875.34
2023-03-15T07:22:30.713Z,97883.66
2023-03-15T07:24:04.731Z,97886.31
2023-03-15T07:25:54.149Z,97874.94
2023-03-15T07:27:28.041Z,97876.78
2023-03-15T07:29:02.530Z,97878.84
2023-03-15T07:30:36.025Z,97879.06
2023-03-15T07:32:09.302Z,97893.13
2023-03-15T07:33:42.772Z,97897.59
2023-03-15T07:35:16.986Z,97882.59
2023-03-15T07:36:50.487Z,97875.41
2023-03-15T07:38:24.744Z,97876.41
2023-03-15T07:39:58.646Z,97867.53
2023-03-15T07:41:31.904Z,97869.00
2023-03-15T07:43:14.055Z,97866.75
2023-03-15T07:44:48.844Z,97859.25
2023-03-15T07:46:22.098Z,97862.28
2023-03-15T07:47:56.612Z,97856.63
2023-03-15T07:49:31.196Z,97856.81
2023-03-15T07:51:04.352Z,97858.34
2023-03-15T07:52:37.684Z,97865.16
2023-03-15T07:54:11.240Z,97873.38
2023-03-15T07:55:45.268Z,97854.66
2023-03-15T07:57:20.724Z,97852.66
2023-03-15T07:58:53.881Z,97848.25
2023-03-15T08:00:29.025Z,97844.72
2023-03-15T08:02:03.400Z,97842.59
2023-03-15T08:03:36.614Z,97848.25
2023-03-15T08:05:10.237Z,97851.66
2023-03-15T08:06:43.328Z,97849.81
2023-03-15T08:08:16.639Z,97847.16
2023-03-15T08:09:49.834Z,97848.94
2023-03-15T08:11:22.967Z,97840.13
2023-03-15T08:12:56.097Z,97843.19
2023-03-15T08:14:31.844Z,97842.25
2023-03-15T08:16:06.826Z,97833.84
2023-03-15T08:17:40.933Z,97829.41
2023-03-15T08:19:14.089Z,97824.00
2023-03-15T08:20:47.799Z,97832.09
2023-03-15T08:22:20.883Z,97829.34
2023-03-15T08:23:54.101Z,97838.31
2023-03-15T08:25:27.321Z,97829.25
2023-03-15T08:27:00.836Z,97826.56
2023-03-15T08:28:33.952Z,97827.63
2023-03-15T08:30:08.111Z,97825.09
2023-03-15T08:31:42.735Z,97823.03
2023-03-15T08:33:16.347Z,97821.09
2023-03-15T08:34:49.492Z,97820.47
2023-03-15T08:36:22.752Z,97805.63
2023-03-15T08:37:55.957Z,97805.22
2023-03-15T08:39:29.503Z,97807.56
2023-03-15T08:41:03.573Z,97794.91
2023-03-15T08:42:37.793Z,97810.09
2023-03-15T08:44:11.154Z,97810.31
2023-03-15T08:46:00.245Z,97819.84
2023-03-15T08:47:36.523Z,97821.09
2023-03-15T08:49:09.631Z,97822.38
2023-03-15T08:50:44.051Z,97821.25
2023-03-15T08:52:18.260Z,97812.38
2023-03-15T08:53:51.960Z,97811.81
2023-03-15T08:55:25.396Z,97809.88
2023-03-15T08:56:58.831Z,97810.25
2023-03-15T08:58:32.568Z,97803.06
2023-03-15T09:00:09.079Z,97807.78
2023-03-15T09:01:42.356Z,97808.19
2023-03-15T09:03:17.208Z,97797.41
2023-03-15T09:04:53.047Z,97804.44
2023-03-15T09:06:26.516Z,97787.69
2023-03-15T09:08:00.758Z,97790.94
2023-03-15T09:09:33.829Z,97788.25
2023-03-15T09:11:07.390Z,97778.97
2023-03-15T09:12:41.021Z,97786.09
2023-03-15T09:14:14.328Z,97781.13
2023-03-15T09:15:47.536Z,97788.16
2023-03-15T09:17:21.648Z,97782.97
2023-03-15T09:18:56.079Z,97788.41
2023-03-15T09:20:29.766Z,97780.31
2023-03-15T09:22:16.982Z,97771.88
2023-03-15T09:23:57.069Z,97763.78
2023-03-15T09:25:30.354Z,97773.41
2023-03-15T09:27:03.702Z,97768.59
2023-03-15T09:28:36.853Z,97770.03
2023-03-15T09:30:13.581Z,97761.19
2023-03-15T09:31:46.679Z,97755.66
2023-03-15T09:33:19.934Z,97753.75
2023-03-15T09:34:54.934Z,97756.28
2023-03-15T09:36:28.539Z,97755.16
2023-03-15T09:38:01.758Z,97748.97
2023-03-15T09:39:34.960Z,97744.19
2023-03-15T09:41:17.634Z,97746.88
2023-03-15T09:43:04.709Z,97745.31
2023-03-15T09:44:45.993Z,97742.19
2023-03-15T09:46:28.891Z,97737.97
2023-03-15T09:48:07.234Z,97740.38
2023-03-15T09:49:46.802Z,97746.16
2023-03-15T09:51:32.741Z,97747.00
2023-03-15T09:53:13.070Z,97738.56
2023-03-15T09:54:51.279Z,97740.25
2023-03-15T09:56:26.761Z,97734.91
2023-03-15T09:58:01.932Z,97738.81
2023-03-15T09:59:39.299Z,97739.94
2023-03-15T10:01:15.750Z,97738.53
2023-03-15T10:02:57.064Z,97733.19
2023-03-15T10:04:34.673Z,97735.19
2023-03-15T10:06:14.436Z,97739.13
2023-03-15T10:07:49.251Z,97734.06
2023-03-15T10:09:24.451Z,97735.03
2023-03-15T10:11:06.045Z,97733.63
2023-03-15T10:12:44.325Z,97735.78
2023-03-15T10:14:29.112Z,97734.63
2023-03-15T10:16:12.330Z,97732.66
2023-03-15T10:17:53.901Z,97734.06
2023-03-15T10:19:38.922Z,97731.22
2023-03-15T10:21:17.564Z,97726.16
2023-03-15T10:23:00.971Z,97725.59
2023-03-15T10:24:41.731Z,97715.16
2023-03-15T10:26:20.111Z,97710.13
2023-03-15T10:27:57.480Z,97712.34
2023-03-15T10:29:31.610Z,97707.31
2023-03-15T10:31:21.532Z,97704.75
2023-03-15T10:33:05.887Z,97707.00
2023-03-15T10:34:39.403Z,97704.44
2023-03-15T10:36:18.379Z,97706.34
2023-03-15T10:37:52.945Z,97700.94
2023-03-15T10:39:26.667Z,97698.94
2023-03-15T10:41:01.200Z,97696.66
2023-03-15T10:42:35.206Z,97688.00
2023-03-15T10:44:12.361Z,97691.06
2023-03-15T10:45:48.838Z,97692.91
2023-03-15T10:47:27.198Z,97695.63
2023-03-15T10:49:02.194Z,97703.91
2023-03-15T10:50:35.522Z,97692.78
2023-03-15T10:52:25.723Z,97687.00
2023-03-15T10:54:03.329Z,97678.50
2023-03-15T10:55:39.165Z,97671.47
2023-03-15T10:57:16.736Z,97669.50
2023-03-15T10:59:09.224Z,97673.59
2023-03-15T11:00:51.925Z,97668.22
2023-03-15T11:02:26.883Z,97666.94
2023-03-15T11:04:16.234Z,97673.28
2023-03-15T11:05:51.096Z,97684.44
2023-03-15T11:07:24.385Z,97676.72
2023-03-15T11:09:11.662Z,97671.94
2023-03-15T11:10:46.249Z,97681.06
2023-03-15T11:12:24.457Z,97671.72
2023-03-15T11:14:01.973Z,97673.09
2023-03-15T11:15:35.255Z,97675.38
2023-03-15T11:17:16.225Z,97674.81
2023-03-15T11:18:53.615Z,97677.63
2023-03-15T11:20:31.785Z,97676.59
2023-03-15T11:22:05.247Z,97675.72
2023-03-15T11:23:41.429Z,97664.59
2023-03-15T11:25:17.025Z,97665.19
2023-03-15T11:26:53.589Z,97670.22
2023-03-15T11:28:30.971Z,97674.91
2023-03-15T11:30:05.520Z,97670.56
2023-03-15T11:31:38.991Z,97666.88
2023-03-15T11:33:26.841Z,97659.38
2023-03-15T11:35:04.790Z,97655.25
2023-03-15T11:36:42.877Z,97654.28
2023-03-15T11:38:25.531Z,97653.38
2023-03-15T11:40:11.617Z,97655.47
2023-03-15T11:41:52.436Z,97659.84
2023-03-15T11:43:29.495Z,97648.41
2023-03-15T11:45:06.134Z,97649.13
2023-03-15T11:46:43.876Z,97645.28
2023-03-15T11:48:24.223Z,97649.63
2023-03-15T11:49:59.060Z,97647.66
2023-03-15T11:51:36.351Z,97635.25
2023-03-15T11:53:12.286Z,97642.47
2023-03-15T11:54:46.639Z,97640.50
2023-03-15T11:56:25.526Z,97634.03
2023-03-15T11:58:37.585Z,97639.69
2023-03-15T12:00:46.880Z,97635.78
2023-03-15T12:02:38.674Z,97636.13
2023-03-15T12:04:44.215Z,97641.03
2023-03-15T12:06:40.330Z,97640.56
2023-03-15T12:08:25.957Z,97646.03
2023-03-15T12:10:32.108Z,97633.63
2023-03-15T12:12:07.713Z,97628.28
2023-03-15T12:13:54.194Z,97640.13
2023-03-15T12:15:45.840Z,97635.09
2023-03-15T12:17:43.222Z,97625.00
2023-03-15T12:19:18.469Z,97615.81
2023-03-15T12:20:59.308Z,97628.69
2023-03-15T12:22:34.898Z,97628.41
2023-03-15T12:24:17.385Z,97636.47
2023-03-15T12:25:56.484Z,97650.13
2023-03-15T12:27:30.885Z,97639.13
2023-03-15T12:29:09.686Z,97644.50
2023-03-15T12:30:44.823Z,97640.56
2023-03-15T12:32:19.755Z,97639.75
2023-03-15T12:33:55.653Z,97642.25
2023-03-15T12:35:34.961Z,97646.47
2023-03-15T12:37:14.067Z,97641.13
2023-03-15T12:39:01.002Z,97653.53
2023-03-15T12:40:48.769Z,97659.16
2023-03-15T12:43:10.566Z,97661.69
2023-03-15T12:44:45.760Z,97658.28
2023-03-15T12:46:55.592Z,97663.09
2023-03-15T12:48:30.402Z,97668.44
2023-03-15T12:50:38.306Z,97669.19
2023-03-15T12:52:30.143Z,97670.28
2023-03-15T12:54:05.789Z,97656.22
2023-03-15T12:55:47.639Z,97661.81
2023-03-15T12:57:24.666Z,97673.25
2023-03-15T12:59:05.006Z,97677.44
2023-03-15T13:00:41.524Z,97677.19
2023-03-15T13:02:42.661Z,97666.34
2023-03-15T13:04:17.089Z,97666.34
2023-03-15T13:06:03.883Z,97679.94
2023-03-15T13:07:56.109Z,97666.69
2023-03-15T13:09:55.989Z,97678.47
2023-03-15T13:11:36.976Z,97668.63
2023-03-15T13:13:27.131Z,97658.81
2023-03-15T13:15:04.717Z,97664.31
2023-03-15T13:16:47.223Z,97673.63
2023-03-15T13:18:24.321Z,97656.00
2023-03-15T13:20:19.299Z,97665.78
2023-03-15T13:22:05.277Z,97682.81
2023-03-15T13:23:39.323Z,97673.81
2023-03-15T13:25:20.548Z,97674.88
2023-03-15T13:26:59.899Z,97676.88
2023-03-15T13:28:37.554Z,97663.84
2023-03-15T13:30:33.358Z,97692.81
2023-03-15T13:32:15.405Z,97694.00
2023-03-15T13:33:49.193Z,97688.03
2023-03-15T13:35:22.487Z,97695.84
2023-03-15T13:36:58.217Z,97698.41
2023-03-15T13:38:33.588Z,97707.66
2023-03-15T13:40:13.681Z,97699.94
2023-03-15T13:41:47.219Z,97702.22
2023-03-15T13:43:20.922Z,97697.22
2023-03-15T13:45:14.764Z,97701.72
2023-03-15T13:46:49.458Z,97698.34
2023-03-15T13:48:24.805Z,97703.91
2023-03-15T13:49:58.150Z,97694.00
2023-03-15T13:51:34.202Z,97712.88
2023-03-15T13:53:07.443Z,97713.41
2023-03-15T13:54:42.324Z,97715.41
2023-03-15T13:56:19.025Z,97708.19
2023-03-15T13:57:56.427Z,97726.47
2023-03-15T13:59:33.803Z,97719.19
2023-03-15T14:01:11.689Z,97726.28
2023-03-15T14:02:49.695Z,97725.13
2023-03-15T14:04:26.588Z,97731.88
2023-03-15T14:05:59.919Z,97730.69
2023-03-15T14:07:37.415Z,97737.16
2023-03-15T14:09:18.454Z,97733.38
2023-03-15T14:11:06.290Z,97738.81
2023-03-15T14:12:39.738Z,97738.75
2023-03-15T14:14:24.257Z,97737.31
2023-03-15T14:15:59.299Z,97736.47
2023-03-15T14:17:33.644Z,97740.19
2023-03-15T14:19:16.922Z,97754.50
2023-03-15T14:21:01.651Z,97757.63
2023-03-15T14:22:36.324Z,97746.50
2023-03-15T14:24:14.817Z,97745.28
2023-03-15T14:25:53.249Z,97744.28
2023-03-15T14:27:29.895Z,97744.41
2023-03-15T14:29:07.686Z,97742.41
2023-03-15T14:30:41.164Z,97743.34
2023-03-15T14:32:27.966Z,97742.16
2023-03-15T14:34:09.384Z,97746.56
2023-03-15T14:35:46.153Z,97739.50
2023-03-15T14:37:39.348Z,97726.03
2023-03-15T14:39:20.870Z,97739.63
2023-03-15T14:40:55.069Z,97746.94
2023-03-15T14:42:28.216Z,97748.13
2023-03-15T14:44:03.030Z,97747.88
2023-03-15T14:45:39.654Z,97745.91
2023-03-15T14:47:16.094Z,97736.03
2023-03-15T14:48:51.165Z,97741.88
2023-03-15T14:50:25.486Z,97736.78
2023-03-15T14:52:02.029Z,97747.72
2023-03-15T14:53:38.675Z,97735.09
2023-03-15T14:55:14.869Z,97729.66
2023-03-15T14:56:48.003Z,97743.56
2023-03-15T14:58:23.290Z,97743.06
2023-03-15T14:59:56.549Z,97742.28
2023-03-15T15:01:30.074Z,97740.31
2023-03-15T15:03:04.147Z,97735.97
2023-03-15T15:04:38.895Z,97736.97
2023-03-15T15:06:14.583Z,97734.13
2023-03-15T15:07:48.015Z,97740.31
2023-03-15T15:09:26.894Z,97734.78
2023-03-15T15:11:00.862Z,97743.50
2023-03-15T15:12:34.224Z,97751.84
2023-03-15T15:14:13.886Z,97749.84
2023-03-15T15:15:55.095Z,97755.06
2023-03-15T15:17:29.049Z,97755.84
2023-03-15T15:19:02.333Z,97765.56
2023-03-15T15:20:35.466Z,97764.34
2023-03-15T15:22:10.312Z,97767.03
2023-03-15T15:23:57.351Z,97764.34
2023-03-15T15:25:33.930Z,97766.56
2023-03-15T15:27:07.392Z,97768.25
2023-03-15T15:28:42.397Z,97764.34
2023-03-15T15:30:17.861Z,97772.22
2023-03-15T15:31:51.239Z,97772.00
2023-03-15T15:33:24.518Z,97787.13
2023-03-15T15:34:59.176Z,97779.13
2023-03-15T15:36:35.200Z,97783.88
2023-03-15T15:38:12.292Z,97784.97
2023-03-15T15:39:45.435Z,97775.13
2023-03-15T15:41:24.783Z,97779.75
2023-03-15T15:42:58.482Z,97785.88
2023-03-15T15:44:31.783Z,97783.72
2023-03-15T15:46:05.165Z,97779.34
2023-03-15T15:47:38.260Z,97781.31
2023-03-15T15:49:11.528Z,97777.19
2023-03-15T15:50:45.126Z,97780.19
2023-03-15T15:52:18.671Z,97782.63
2023-03-15T15:53:52.586Z,97781.28
2023-03-15T15:55:29.836Z,97786.84
2023-03-15T15:57:05.182Z,97789.03
2023-03-15T15:58:38.403Z,97785.63
2023-03-15T16:00:17.967Z,97786.22
2023-03-15T16:02:06.585Z,97784.38
2023-03-15T16:03:39.950Z,97795.03
2023-03-15T16:05:14.903Z,97793.22
2023-03-15T16:06:53.191Z,97785.72
2023-03-15T16:08:26.974Z,97796.97
2023-03-15T16:10:01.258Z,97801.19
2023-03-15T16:11:34.889Z,97799.09
2023-03-15T16:13:12.543Z,97800.28
2023-03-15T16:14:45.782Z,97811.16
2023-03-15T16:16:19.457Z,97807.78
2023-03-15T16:17:52.669Z,97816.84
2023-03-15T16:19:25.812Z,97815.81
2023-03-15T16:21:00.241Z,97817.69
2023-03-15T16:22:33.565Z,97822.41
2023-03-15T16:24:12.724Z,97828.69
2023-03-15T16:25:48.913Z,97825.28
2023-03-15T16:27:26.019Z,97822.13
2023-03-15T16:29:00.543Z,97815.56
2023-03-15T16:30:34.611Z,97818.00
2023-03-15T16:32:19.075Z,97812.16
2023-03-15T16:33:55.632Z,97817.72
2023-03-15T16:35:33.954Z,97814.31
2023-03-15T16:37:07.242Z,97816.47
2023-03-15T16:38:40.451Z,97807.03
2023-03-15T16:40:21.862Z,97822.63
2023-03-15T16:41:55.103Z,97815.72
2023-03-15T16:43:27.569Z,97813.06
2023-03-15T16:45:02.395Z,97810.13
2023-03-15T16:46:35.970Z,97819.91
2023-03-15T16:48:09.285Z,97817.34
2023-03-15T16:49:42.566Z,97823.41
2023-03-15T16:51:17.123Z,97827.34
2023-03-15T16:52:54.258Z,97829.03
2023-03-15T16:54:40.553Z,97833.25
2023-03-15T16:56:16.436Z,97840.91
2023-03-15T16:57:49.880Z,97831.97
2023-03-15T16:59:23.130Z,97841.50
2023-03-15T17:00:57.890Z,97842.38
2023-03-15T17:02:31.281Z,97844.91
2023-03-15T17:04:05.470Z,97843.22
2023-03-15T17:05:38.808Z,97828.81
2023-03-15T17:07:14.523Z,97841.97
2023-03-15T17:08:48.122Z,97850.28
2023-03-15T17:10:24.541Z,97839.03
2023-03-15T17:11:58.033Z,97844.78
2023-03-15T17:13:33.273Z,97829.09
2023-03-15T17:15:08.196Z,97855.63
2023-03-15T17:16:44.405Z,97864.47
2023-03-15T17:18:19.990Z,97853.53
2023-03-15T17:19:54.383Z,97871.25
2023-03-15T17:21:29.001Z,97868.81
2023-03-15T17:23:04.877Z,97881.88
2023-03-15T17:24:38.377Z,97872.22
2023-03-15T17:26:13.803Z,97872.22
2023-03-15T17:27:49.306Z,97874.66
2023-03-15T17:29:22.906Z,97875.59
2023-03-15T17:31:13.994Z,97873.91
2023-03-15T17:32:51.259Z,97875.81
2023-03-15T17:34:24.538Z,97878.72
2023-03-15T17:35:58.719Z,97868.72
2023-03-15T17:37:35.417Z,97889.88
2023-03-15T17:39:12.885Z,97892.63
2023-03-15T17:40:46.662Z,97887.97
2023-03-15T17:42:20.034Z,97887.97
2023-03-15T17:43:53.611Z,97892.31
2023-03-15T17:45:28.779Z,97886.06
2023-03-15T17:47:04.041Z,97890.53
2023-03-15T17:48:40.301Z,97888.91
2023-03-15T17:50:13.650Z,97892.03
2023-03-15T17:51:47.022Z,97885.84
2023-03-15T17:53:21.796Z,97899.69
2023-03-15T17:54:54.904Z,97890.34
2023-03-15T17:56:28.956Z,97896.94
2023-03-15T17:58:02.268Z,97896.69
2023-03-15T17:59:35.721Z,97895.22
2023-03-15T18:01:16.609Z,97900.75
2023-03-15T18:02:55.728Z,97902.88
2023-03-15T18:04:31.062Z,97908.38
2023-03-15T18:06:05.461Z,97912.00
2023-03-15T18:07:43.541Z,97908.81
2023-03-15T18:09:19.393Z,97916.03
2023-03-15T18:10:54.347Z,97909.03
2023-03-15T18:12:28.095Z,97911.38
2023-03-15T18:14:01.503Z,97916.00
2023-03-15T18:15:34.733Z,97908.34
2023-03-15T18:17:07.826Z,97917.47
2023-03-15T18:18:41.602Z,97912.91
2023-03-15T18:20:16.973Z,97915.75
2023-03-15T18:21:50.173Z,97916.50
2023-03-15T18:23:23.471Z,97928.81
2023-03-15T18:24:56.621Z,97926.38
2023-03-15T18:26:30.201Z,97931.88
2023-03-15T18:28:03.693Z,97922.41
2023-03-15T18:29:38.766Z,97922.53
2023-03-15T18:31:13.825Z,97920.41
2023-03-15T18:32:47.860Z,97922.09
2023-03-15T18:34:22.052Z,97923.78
2023-03-15T18:35:56.698Z,97928.03
2023-03-15T18:37:30.095Z,97923.88
2023-03-15T18:39:06.593Z,97931.84
2023-03-15T18:40:40.354Z,97929.38
2023-03-15T18:42:13.660Z,97934.69
2023-03-15T18:43:49.905Z,97933.72
2023-03-15T18:45:25.199Z,97945.38
2023-03-15T18:46:58.424Z,97943.78
2023-03-15T18:48:40.454Z,97949.94
2023-03-15T18:50:15.359Z,97940.19
2023-03-15T18:51:50.112Z,97945.47
2023-03-15T18:53:24.199Z,97943.78
2023-03-15T18:54:57.367Z,97946.66
2023-03-15T18:56:34.503Z,97944.72
2023-03-15T18:58:09.154Z,97941.16
2023-03-15T18:59:42.586Z,97946.66
2023-03-15T19:01:16.099Z,97951.19
2023-03-15T19:02:49.362Z,97947.59
2023-03-15T19:04:22.825Z,97953.84
2023-03-15T19:05:56.614Z,97957.44
2023-03-15T19:07:31.191Z,97953.59
2023-03-15T19:09:05.578Z,97957.63
2023-03-15T19:10:38.789Z,97961.06
2023-03-15T19:12:12.310Z,97959.47